CYED/YED METAR and TAF weather

Enter ICAO airport designator
Station Type Date Time Source
CYED METAR 2019/06/18 13:00 UTC NOAA

CYED 181300Z AUTO 28007KT 9SM FEW045 FEW060 16/11 A2984 RMK SLP105


Station Type Date Time Source
CYED Decoded METAR 2019/06/18 13:00 UTC NOAA

Edmonton Namao Alta., Canada (CYED) 53-40N 113-28W 688M
Jun 18, 2019 - 09:00 AM EDT / 2019.06.18 1300 UTC
Wind: from the W (280 degrees) at 8 MPH (7 KT):0
Visibility: 9 mile(s):0
Sky conditions: mostly clear
Temperature: 60 F (16 C)
Dew Point: 51 F (11 C)
Relative Humidity: 72%
Pressure (altimeter): 29.84 in. Hg (1010 hPa)
ob: CYED 181300Z AUTO 28007KT 9SM FEW045 FEW060 16/11 A2984 RMK SLP105
cycle: 13

Station Type Date Time Source
CYED TAF 2019/06/18 12:33 UTC NOAA

TAF CYED 181130Z 1812/1824 17012G22KT P6SM OVC120
BECMG 1812/1814 30015G25KT
FM181400 30015G25KT P6SM SCT080 OVC120
TEMPO 1814/1820 P6SM -SHRA OVC080 PROB30 1814/1817 VRB15G30KT 5SM TSRA OVC070CB
FM182100 32012KT P6SM SCT060 BKN250
RMK FCST BASED ON AUTO OBS. NXT FCST BY 181800Z

Example: see airport list